createdAt,value
2023-03-20T00:00:41.402Z,99809.97
2023-03-20T00:03:24.100Z,99812.47
2023-03-20T00:06:02.603Z,99816.16
2023-03-20T00:08:46.287Z,99811.13
2023-03-20T00:11:39.453Z,99802.66
2023-03-20T00:14:24.699Z,99803.84
2023-03-20T00:17:16.186Z,99807.72
2023-03-20T00:19:51.531Z,99802.56
2023-03-20T00:22:43.028Z,99804.19
2023-03-20T00:25:38.017Z,99808.34
2023-03-20T00:28:39.053Z,99803.06
2023-03-20T00:31:36.729Z,99800.34
2023-03-20T00:34:14.946Z,99796.84
2023-03-20T00:37:05.664Z,99797.44
2023-03-20T00:39:51.744Z,99799.66
2023-03-20T00:42:34.986Z,99801.28
2023-03-20T00:45:27.702Z,99800.47
2023-03-20T00:48:16.270Z,99795.25
2023-03-20T00:50:56.054Z,99806.78
2023-03-20T00:53:40.254Z,99797.41
2023-03-20T00:56:37.178Z,99802.72
2023-03-20T00:59:21.028Z,99807.59
2023-03-20T01:01:58.753Z,99801.41
2023-03-20T01:04:51.458Z,99810.06
2023-03-20T01:07:33.512Z,99805.63
2023-03-20T01:10:20.118Z,99806.94
2023-03-20T01:13:00.601Z,99810.28
2023-03-20T01:15:44.526Z,99806.59
2023-03-20T01:18:30.619Z,99810.53
2023-03-20T01:21:08.304Z,99799.53
2023-03-20T01:23:51.001Z,99795.34
2023-03-20T01:26:43.365Z,99794.94
2023-03-20T01:29:35.385Z,99806.78
2023-03-20T01:32:15.561Z,99806.94
2023-03-20T01:34:54.884Z,99797.69
2023-03-20T01:37:33.384Z,99794.47
2023-03-20T01:40:39.998Z,99792.50
2023-03-20T01:43:27.790Z,99787.53
2023-03-20T01:46:17.731Z,99784.94
2023-03-20T01:49:05.591Z,99776.34
2023-03-20T01:51:48.940Z,99777.50
2023-03-20T01:54:35.019Z,99777.50
2023-03-20T01:57:30.166Z,99777.50
2023-03-20T02:00:13.044Z,99779.53
2023-03-20T02:02:58.617Z,99781.00
2023-03-20T02:06:02.903Z,99778.97
2023-03-20T02:09:15.433Z,99773.34
2023-03-20T02:12:05.936Z,99778.31
2023-03-20T02:14:49.288Z,99774.34
2023-03-20T02:17:42.686Z,99773.28
2023-03-20T02:20:41.590Z,99761.66
2023-03-20T02:24:14.493Z,99769.50
2023-03-20T02:27:18.292Z,99767.09
2023-03-20T02:30:16.784Z,99769.25
2023-03-20T02:33:24.724Z,99776.72
2023-03-20T02:36:30.702Z,99769.53
2023-03-20T02:40:16.378Z,99764.53
2023-03-20T02:43:04.826Z,99765.19
2023-03-20T02:46:02.354Z,99766.47
2023-03-20T02:48:46.080Z,99763.81
2023-03-20T02:51:46.926Z,99770.00
2023-03-20T02:54:37.572Z,99771.00
2023-03-20T02:57:38.699Z,99766.56
2023-03-20T03:00:56.565Z,99759.19
2023-03-20T03:03:44.137Z,99762.13
2023-03-20T03:06:30.066Z,99759.09
2023-03-20T03:09:17.230Z,99767.84
2023-03-20T03:12:04.559Z,99750.31
2023-03-20T03:14:50.033Z,99759.19
2023-03-20T03:17:35.666Z,99756.13
2023-03-20T03:20:24.729Z,99756.13
2023-03-20T03:23:11.519Z,99762.56
2023-03-20T03:25:51.945Z,99753.13
2023-03-20T03:28:52.894Z,99750.75
2023-03-20T03:31:38.341Z,99745.84
2023-03-20T03:34:25.330Z,99750.81
2023-03-20T03:37:53.897Z,99744.53
2023-03-20T03:40:58.400Z,99751.44
2023-03-20T03:43:34.565Z,99759.19
2023-03-20T03:46:24.991Z,99759.72
2023-03-20T03:49:12.038Z,99760.47
2023-03-20T03:52:12.977Z,99763.00
2023-03-20T03:54:59.455Z,99761.56
2023-03-20T03:57:57.501Z,99765.31
2023-03-20T04:00:34.190Z,99765.50
2023-03-20T04:03:23.876Z,99770.28
2023-03-20T04:06:01.560Z,99771.41
2023-03-20T04:08:51.978Z,99770.44
2023-03-20T04:11:36.127Z,99770.13
2023-03-20T04:14:25.050Z,99769.41
2023-03-20T04:17:14.522Z,99784.44
2023-03-20T04:19:56.165Z,99787.13
2023-03-20T04:22:43.564Z,99786.09
2023-03-20T04:25:33.195Z,99793.19
2023-03-20T04:28:23.748Z,99792.84
2023-03-20T04:31:22.069Z,99792.38
2023-03-20T04:34:17.662Z,99787.22
2023-03-20T04:37:16.982Z,99793.59
2023-03-20T04:40:10.145Z,99789.25
2023-03-20T04:42:56.214Z,99787.41
2023-03-20T04:45:45.157Z,99795.66
2023-03-20T04:48:32.550Z,99803.16
2023-03-20T04:51:20.009Z,99800.09
2023-03-20T04:54:14.892Z,99807.78
2023-03-20T04:56:59.231Z,99812.63
2023-03-20T04:59:39.914Z,99815.66
2023-03-20T05:02:24.812Z,99815.28
2023-03-20T05:05:05.539Z,99806.28
2023-03-20T05:07:46.824Z,99806.75
2023-03-20T05:10:48.645Z,99811.75
2023-03-20T05:13:46.185Z,99808.56
2023-03-20T05:16:43.801Z,99811.22
2023-03-20T05:19:38.859Z,99817.69
2023-03-20T05:22:24.869Z,99817.88
2023-03-20T05:25:33.525Z,99824.34
2023-03-20T05:28:31.345Z,99819.78
2023-03-20T05:31:38.353Z,99818.59
2023-03-20T05:34:30.693Z,99816.16
2023-03-20T05:37:34.445Z,99818.09
2023-03-20T05:40:30.323Z,99821.72
2023-03-20T05:43:31.193Z,99820.53
2023-03-20T05:46:41.344Z,99818.88
2023-03-20T05:49:58.160Z,99818.63
2023-03-20T05:53:13.168Z,99823.38
2023-03-20T05:56:13.547Z,99830.28
2023-03-20T05:58:57.397Z,99831.47
2023-03-20T06:01:49.973Z,99829.53
2023-03-20T06:04:33.068Z,99830.22
2023-03-20T06:07:25.312Z,99825.50
2023-03-20T06:10:27.973Z,99828.97
2023-03-20T06:13:10.789Z,99831.66
2023-03-20T06:15:49.690Z,99839.69
2023-03-20T06:18:33.596Z,99842.72
2023-03-20T06:21:26.325Z,99848.34
2023-03-20T06:24:18.675Z,99848.69
2023-03-20T06:27:00.306Z,99858.03
2023-03-20T06:29:44.115Z,99855.09
2023-03-20T06:32:47.462Z,99849.34
2023-03-20T06:35:31.372Z,99852.56
2023-03-20T06:38:20.456Z,99844.03
2023-03-20T06:41:09.844Z,99855.59
2023-03-20T06:44:00.863Z,99844.31
2023-03-20T06:47:06.955Z,99850.00
2023-03-20T06:49:53.726Z,99856.91
2023-03-20T06:52:36.836Z,99861.28
2023-03-20T06:55:40.809Z,99862.31
2023-03-20T06:58:32.940Z,99866.66
2023-03-20T07:01:21.898Z,99872.66
2023-03-20T07:04:09.344Z,99861.59
2023-03-20T07:06:58.014Z,99860.09
2023-03-20T07:09:52.581Z,99859.34
2023-03-20T07:12:30.988Z,99865.28
2023-03-20T07:15:15.631Z,99874.56
2023-03-20T07:17:59.194Z,99870.13
2023-03-20T07:20:49.505Z,99864.81
2023-03-20T07:23:42.949Z,99865.75
2023-03-20T07:26:29.241Z,99868.59
2023-03-20T07:29:18.372Z,99869.75
2023-03-20T07:31:59.642Z,99864.94
2023-03-20T07:34:47.650Z,99862.38
2023-03-20T07:37:37.567Z,99864.56
2023-03-20T07:40:18.941Z,99864.19
2023-03-20T07:43:11.560Z,99872.69
2023-03-20T07:46:18.320Z,99874.38
2023-03-20T07:48:58.981Z,99869.78
2023-03-20T07:51:39.846Z,99877.88
2023-03-20T07:54:19.525Z,99866.53
2023-03-20T07:57:09.277Z,99859.25
2023-03-20T07:59:47.048Z,99865.56
2023-03-20T08:02:43.285Z,99864.44
2023-03-20T08:05:26.853Z,99868.28
2023-03-20T08:08:10.278Z,99869.13
2023-03-20T08:10:48.675Z,99860.00
2023-03-20T08:13:28.758Z,99865.09
2023-03-20T08:16:13.321Z,99866.34
2023-03-20T08:19:11.673Z,99865.28
2023-03-20T08:21:59.712Z,99862.81
2023-03-20T08:24:40.980Z,99863.69
2023-03-20T08:27:26.783Z,99867.19
2023-03-20T08:30:09.041Z,99867.75
2023-03-20T08:32:55.588Z,99869.78
2023-03-20T08:35:41.494Z,99869.28
2023-03-20T08:38:36.275Z,99876.09
2023-03-20T08:41:19.963Z,99872.06
2023-03-20T08:44:02.985Z,99869.72
2023-03-20T08:46:58.719Z,99878.88
2023-03-20T08:49:49.195Z,99877.34
2023-03-20T08:52:35.549Z,99876.72
2023-03-20T08:55:20.971Z,99879.41
2023-03-20T08:58:06.847Z,99881.47
2023-03-20T09:00:47.077Z,99878.53
2023-03-20T09:03:25.628Z,99880.91
2023-03-20T09:06:10.665Z,99872.22
2023-03-20T09:08:55.429Z,99875.84
2023-03-20T09:11:39.343Z,99883.81
2023-03-20T09:14:25.770Z,99878.88
2023-03-20T09:17:09.509Z,99881.03
2023-03-20T09:19:54.405Z,99883.94
2023-03-20T09:22:52.939Z,99880.50
2023-03-20T09:25:37.211Z,99883.59
2023-03-20T09:28:20.976Z,99881.22
2023-03-20T09:30:59.072Z,99883.41
2023-03-20T09:33:46.692Z,99878.31
2023-03-20T09:36:33.652Z,99888.78
2023-03-20T09:39:11.146Z,99886.38
2023-03-20T09:41:57.869Z,99889.41
2023-03-20T09:44:50.598Z,99878.47
2023-03-20T09:47:48.810Z,99883.81
2023-03-20T09:50:51.056Z,99876.38
2023-03-20T09:53:34.499Z,99872.94
2023-03-20T09:56:37.531Z,99869.00
2023-03-20T09:59:30.144Z,99869.56
2023-03-20T10:02:19.779Z,99867.44
2023-03-20T10:05:04.514Z,99864.91
2023-03-20T10:07:49.292Z,99856.16
2023-03-20T10:11:04.008Z,99866.78
2023-03-20T10:14:02.551Z,99862.78
2023-03-20T10:17:06.769Z,99859.63
2023-03-20T10:20:24.009Z,99863.41
2023-03-20T10:23:29.480Z,99861.06
2023-03-20T10:26:12.493Z,99862.50
2023-03-20T10:29:03.030Z,99868.75
2023-03-20T10:31:45.984Z,99862.81
2023-03-20T10:34:32.414Z,99861.25
2023-03-20T10:37:32.717Z,99856.31
2023-03-20T10:40:29.052Z,99856.88
2023-03-20T10:43:28.130Z,99852.16
2023-03-20T10:46:17.122Z,99854.81
2023-03-20T10:49:04.495Z,99855.38
2023-03-20T10:52:01.861Z,99855.31
2023-03-20T10:54:41.621Z,99857.88
2023-03-20T10:57:42.261Z,99850.97
2023-03-20T11:00:24.945Z,99847.50
2023-03-20T11:03:10.982Z,99834.59
2023-03-20T11:06:08.253Z,99840.53
2023-03-20T11:08:57.205Z,99826.88
2023-03-20T11:11:41.278Z,99830.66
2023-03-20T11:14:29.569Z,99835.53
2023-03-20T11:17:15.362Z,99827.84
2023-03-20T11:20:10.809Z,99817.19
2023-03-20T11:22:56.151Z,99822.91
2023-03-20T11:25:43.844Z,99816.38
2023-03-20T11:28:49.830Z,99820.81
2023-03-20T11:31:37.497Z,99820.56
2023-03-20T11:34:17.815Z,99812.84
2023-03-20T11:37:34.561Z,99805.78
2023-03-20T11:40:36.299Z,99803.94
2023-03-20T11:43:28.623Z,99806.03
2023-03-20T11:46:11.351Z,99811.78
2023-03-20T11:49:10.558Z,99799.44
2023-03-20T11:51:43.544Z,99795.09
2023-03-20T11:54:24.739Z,99790.19
2023-03-20T11:57:11.284Z,99793.59
2023-03-20T11:59:49.196Z,99797.22
2023-03-20T12:02:31.414Z,99797.78
2023-03-20T12:05:30.503Z,99791.75
2023-03-20T12:08:29.884Z,99786.28
2023-03-20T12:11:24.652Z,99790.13
2023-03-20T12:14:08.345Z,99783.03
2023-03-20T12:16:51.016Z,99786.84
2023-03-20T12:19:37.572Z,99784.91
2023-03-20T12:23:01.948Z,99781.09
2023-03-20T12:25:58.174Z,99777.53
2023-03-20T12:28:44.873Z,99778.13
2023-03-20T12:31:53.541Z,99775.41
2023-03-20T12:34:53.312Z,99769.94
2023-03-20T12:37:34.562Z,99772.69
2023-03-20T12:40:22.568Z,99769.94
2023-03-20T12:43:44.640Z,99767.09
2023-03-20T12:46:58.993Z,99757.88
2023-03-20T12:50:13.359Z,99760.00
2023-03-20T12:53:36.510Z,99752.34
2023-03-20T12:57:02.557Z,99751.00
2023-03-20T12:59:52.412Z,99751.28
2023-03-20T13:02:30.322Z,99750.75
2023-03-20T13:05:34.000Z,99743.34
2023-03-20T13:08:33.851Z,99741.13
2023-03-20T13:11:51.536Z,99739.50
2023-03-20T13:14:57.560Z,99730.47
2023-03-20T13:17:57.124Z,99737.59
2023-03-20T13:20:42.270Z,99736.53
2023-03-20T13:23:47.232Z,99736.53
2023-03-20T13:26:41.920Z,99728.59
2023-03-20T13:29:48.048Z,99723.94
2023-03-20T13:32:50.886Z,99728.00
2023-03-20T13:36:00.494Z,99722.28
2023-03-20T13:38:46.153Z,99718.47
2023-03-20T13:41:31.659Z,99713.50
2023-03-20T13:44:19.736Z,99714.28
2023-03-20T13:47:29.640Z,99718.88
2023-03-20T13:50:26.528Z,99703.63
2023-03-20T13:53:28.918Z,99706.03
2023-03-20T13:56:37.463Z,99698.81
2023-03-20T14:00:06.524Z,99695.28
2023-03-20T14:03:11.444Z,99699.53
2023-03-20T14:05:48.147Z,99697.97
2023-03-20T14:08:45.942Z,99701.22
2023-03-20T14:11:41.544Z,99698.75
2023-03-20T14:14:41.718Z,99698.81
2023-03-20T14:17:59.694Z,99694.19
2023-03-20T14:20:42.007Z,99694.19
2023-03-20T14:23:42.325Z,99689.03
2023-03-20T14:26:38.498Z,99692.38
2023-03-20T14:29:22.316Z,99697.09
2023-03-20T14:32:28.318Z,99693.53
2023-03-20T14:35:33.377Z,99686.16
2023-03-20T14:38:32.618Z,99693.28
2023-03-20T14:41:24.828Z,99690.00
2023-03-20T14:44:30.564Z,99684.50
2023-03-20T14:47:57.945Z,99680.28
2023-03-20T14:50:54.998Z,99678.84
2023-03-20T14:53:37.575Z,99677.69
2023-03-20T14:56:29.320Z,99676.97
2023-03-20T14:59:22.849Z,99683.78
2023-03-20T15:02:11.251Z,99674.47
2023-03-20T15:04:54.513Z,99672.75
2023-03-20T15:07:42.545Z,99681.97
2023-03-20T15:10:19.691Z,99678.75
2023-03-20T15:13:00.428Z,99674.13
2023-03-20T15:16:07.113Z,99682.03
2023-03-20T15:18:51.038Z,99676.78
2023-03-20T15:21:34.163Z,99675.72
2023-03-20T15:24:33.056Z,99669.66
2023-03-20T15:27:16.712Z,99668.63
2023-03-20T15:30:02.600Z,99670.81
2023-03-20T15:32:51.707Z,99667.75
2023-03-20T15:35:36.377Z,99670.81
2023-03-20T15:38:19.587Z,99667.44
2023-03-20T15:41:00.808Z,99666.53
2023-03-20T15:43:50.026Z,99660.66
2023-03-20T15:46:53.538Z,99667.25
2023-03-20T15:49:41.533Z,99671.47
2023-03-20T15:52:42.353Z,99677.22
2023-03-20T15:55:57.662Z,99685.03
2023-03-20T15:58:58.637Z,99684.69
2023-03-20T16:01:38.578Z,99683.47
2023-03-20T16:04:22.650Z,99679.03
2023-03-20T16:07:24.960Z,99677.03
2023-03-20T16:10:17.458Z,99686.41
2023-03-20T16:12:59.126Z,99693.63
2023-03-20T16:15:50.980Z,99683.63
2023-03-20T16:18:45.022Z,99687.69
2023-03-20T16:21:36.262Z,99686.38
2023-03-20T16:24:26.903Z,99684.56
2023-03-20T16:27:02.389Z,99678.50
2023-03-20T16:29:48.544Z,99688.38
2023-03-20T16:32:46.351Z,99692.28
2023-03-20T16:35:48.590Z,99691.56
2023-03-20T16:38:41.528Z,99698.22
2023-03-20T16:41:40.560Z,99697.34
2023-03-20T16:44:30.243Z,99702.41
2023-03-20T16:47:49.492Z,99706.50
2023-03-20T16:50:48.317Z,99707.28
2023-03-20T16:53:27.498Z,99718.28
2023-03-20T16:56:08.522Z,99715.63
2023-03-20T16:58:59.349Z,99718.53
2023-03-20T17:01:46.403Z,99721.19
2023-03-20T17:04:36.413Z,99716.03
2023-03-20T17:07:30.800Z,99716.28
2023-03-20T17:10:30.504Z,99710.53
2023-03-20T17:13:19.477Z,99720.16
2023-03-20T17:16:03.262Z,99719.78
2023-03-20T17:18:51.195Z,99725.38
2023-03-20T17:21:30.574Z,99721.72
2023-03-20T17:24:21.852Z,99722.84
2023-03-20T17:27:15.583Z,99721.19
2023-03-20T17:29:55.835Z,99714.47
2023-03-20T17:32:41.188Z,99715.78
2023-03-20T17:35:24.617Z,99713.94
2023-03-20T17:38:00.160Z,99719.59
2023-03-20T17:40:48.684Z,99722.44
2023-03-20T17:43:42.968Z,99722.66
2023-03-20T17:46:24.386Z,99728.91
2023-03-20T17:49:34.970Z,99735.66
2023-03-20T17:52:26.841Z,99740.69
2023-03-20T17:55:10.432Z,99733.13
2023-03-20T17:57:51.194Z,99736.38
2023-03-20T18:00:37.711Z,99738.66
2023-03-20T18:03:18.241Z,99737.44
2023-03-20T18:05:57.047Z,99739.25
2023-03-20T18:08:35.472Z,99743.03
2023-03-20T18:11:20.428Z,99733.47
2023-03-20T18:13:55.678Z,99744.41
2023-03-20T18:16:41.322Z,99741.03
2023-03-20T18:19:43.928Z,99745.47
2023-03-20T18:22:25.655Z,99739.97
2023-03-20T18:25:07.011Z,99740.28
2023-03-20T18:27:50.270Z,99747.06
2023-03-20T18:30:42.320Z,99745.63
2023-03-20T18:33:33.330Z,99747.91
2023-03-20T18:36:19.054Z,99738.84
2023-03-20T18:38:54.341Z,99749.91
2023-03-20T18:41:50.882Z,99744.72
2023-03-20T18:44:25.947Z,99751.28
2023-03-20T18:47:06.866Z,99745.06
2023-03-20T18:49:50.053Z,99749.84
2023-03-20T18:52:39.529Z,99755.31
2023-03-20T18:55:20.654Z,99755.28
2023-03-20T18:58:03.941Z,99750.94
2023-03-20T19:00:51.469Z,99756.41
2023-03-20T19:03:41.685Z,99755.34
2023-03-20T19:06:29.967Z,99750.59
2023-03-20T19:09:21.262Z,99759.41
2023-03-20T19:11:58.594Z,99757.16
2023-03-20T19:14:41.398Z,99758.00
2023-03-20T19:17:23.850Z,99762.19
2023-03-20T19:20:06.174Z,99766.13
2023-03-20T19:22:47.337Z,99758.91
2023-03-20T19:25:31.943Z,99763.09
2023-03-20T19:28:18.119Z,99763.53
2023-03-20T19:31:00.092Z,99758.56
2023-03-20T19:33:42.903Z,99759.44
2023-03-20T19:36:36.394Z,99762.56
2023-03-20T19:39:21.691Z,99766.53
2023-03-20T19:42:26.148Z,99765.69
2023-03-20T19:45:10.281Z,99773.56
2023-03-20T19:47:51.446Z,99762.56
2023-03-20T19:50:46.633Z,99763.63
2023-03-20T19:53:31.454Z,99767.13
2023-03-20T19:56:14.734Z,99766.50
2023-03-20T19:59:06.836Z,99768.38
2023-03-20T20:01:52.518Z,99765.03
2023-03-20T20:04:39.003Z,99757.78
2023-03-20T20:10:30.570Z,99757.31
2023-03-20T20:13:19.292Z,99755.09
2023-03-20T20:15:58.278Z,99749.72
2023-03-20T20:18:44.305Z,99756.53
2023-03-20T20:22:13.396Z,99752.59
2023-03-20T20:24:31.863Z,99755.09
2023-03-20T20:27:18.821Z,99752.41
2023-03-20T20:29:58.326Z,99744.50
2023-03-20T20:32:43.634Z,99750.25
2023-03-20T20:35:47.739Z,99756.28
2023-03-20T20:38:50.948Z,99747.75
2023-03-20T20:41:35.567Z,99754.38
2023-03-20T20:44:25.718Z,99749.41
2023-03-20T20:47:00.670Z,99747.78
2023-03-20T20:49:46.969Z,99756.44
2023-03-20T20:52:21.779Z,99754.34
2023-03-20T20:55:22.173Z,99749.41
2023-03-20T20:58:04.052Z,99745.66
2023-03-20T21:00:55.141Z,99738.78
2023-03-20T21:03:33.748Z,99739.78
2023-03-20T21:06:19.045Z,99738.97
2023-03-20T21:08:56.482Z,99742.25
2023-03-20T21:11:50.575Z,99745.47
2023-03-20T21:14:29.496Z,99747.09
2023-03-20T21:17:07.399Z,99740.16
2023-03-20T21:19:57.576Z,99744.19
2023-03-20T21:22:41.278Z,99736.63
2023-03-20T21:25:36.372Z,99734.78
2023-03-20T21:28:24.887Z,99742.03
2023-03-20T21:31:24.502Z,99740.16
2023-03-20T21:34:11.857Z,99746.47
2023-03-20T21:36:59.626Z,99747.28
2023-03-20T21:39:45.558Z,99739.28
2023-03-20T21:42:29.554Z,99749.31
2023-03-20T21:49:04.126Z,99738.84
2023-03-20T21:52:30.546Z,99759.97
2023-03-20T21:58:27.484Z,99764.88
2023-03-20T22:07:45.003Z,99763.44
2023-03-20T22:14:12.630Z,99764.72
2023-03-20T22:17:15.606Z,99769.38
2023-03-20T22:23:29.336Z,99764.66
2023-03-20T22:27:24.762Z,99756.81
2023-03-20T22:33:36.076Z,99762.81
2023-03-20T22:36:57.543Z,99757.44
2023-03-20T22:47:57.776Z,99762.09
2023-03-20T22:50:42.454Z,99770.97
2023-03-20T22:53:28.369Z,99765.09
2023-03-20T22:56:15.744Z,99771.94
2023-03-20T22:59:04.784Z,99770.72
2023-03-20T23:01:46.959Z,99769.75
2023-03-20T23:04:30.326Z,99768.78
2023-03-20T23:07:14.703Z,99769.66
2023-03-20T23:09:59.139Z,99764.50
2023-03-20T23:12:38.977Z,99766.00
2023-03-20T23:15:19.336Z,99768.28
2023-03-20T23:18:13.246Z,99775.41
2023-03-20T23:21:01.707Z,99770.50
2023-03-20T23:23:52.763Z,99770.50
2023-03-20T23:26:41.766Z,99774.19
2023-03-20T23:29:26.689Z,99768.28
2023-03-20T23:32:05.310Z,99761.97
2023-03-20T23:34:45.882Z,99764.75
2023-03-20T23:37:34.510Z,99763.25
2023-03-20T23:40:13.661Z,99758.50
2023-03-20T23:42:59.535Z,99755.22
2023-03-20T23:45:46.584Z,99758.06
2023-03-20T23:48:30.865Z,99759.97
2023-03-20T23:51:16.811Z,99758.72
2023-03-20T23:54:15.546Z,99748.16
2023-03-20T23:56:59.387Z,99754.19
2023-03-20T23:59:48.515Z,99756.31
